<?xml version="1.0" encoding="UTF-8" standalone="no" ?>
<gpx xmlns="http://www.topografix.com/GPX/1/1" xmlns:xsi="http://www.w3.org/2001/XMLSchema-instance" xsi:schemaLocation="http://www.topografix.com/GPX/1/1 http://www.topografix.com/GPX/1/1/gpx.xsd" version="1.1" creator="VisuGPX - https://www.visugpx.com">
  <metadata>
    <name>ROUFFIAC LA FOURMA GEOUGE</name>
  </metadata>
  <trk>
    <name><![CDATA[ROUFFIAC LA FOURMA GEOUGE]]></name>
    <trkseg>
      <trkpt lat="43.88246" lon="2.06883">
        <ele>216</ele>
        <time>2017-04-30T18:14:42Z</time>
      </trkpt>
      <trkpt lat="43.88246" lon="2.06999">
        <ele>212</ele>
        <time>2017-04-30T18:16:42Z</time>
      </trkpt>
      <trkpt lat="43.88199" lon="2.07214">
        <ele>200</ele>
        <time>2017-04-30T18:18:42Z</time>
      </trkpt>
      <trkpt lat="43.8815" lon="2.07282">
        <ele>197</ele>
        <time>2017-04-30T18:20:42Z</time>
      </trkpt>
      <trkpt lat="43.88103" lon="2.07345">
        <ele>196</ele>
        <time>2017-04-30T18:22:42Z</time>
      </trkpt>
      <trkpt lat="43.88071" lon="2.07519">
        <ele>198</ele>
        <time>2017-04-30T18:24:42Z</time>
      </trkpt>
      <trkpt lat="43.8802" lon="2.07686">
        <ele>198</ele>
        <time>2017-04-30T18:26:42Z</time>
      </trkpt>
      <trkpt lat="43.88008" lon="2.07858">
        <ele>202</ele>
        <time>2017-04-30T18:28:42Z</time>
      </trkpt>
      <trkpt lat="43.87936" lon="2.07738">
        <ele>198</ele>
        <time>2017-04-30T18:30:42Z</time>
      </trkpt>
      <trkpt lat="43.87875" lon="2.07627">
        <ele>204</ele>
        <time>2017-04-30T18:32:42Z</time>
      </trkpt>
      <trkpt lat="43.87868" lon="2.07494">
        <ele>209</ele>
        <time>2017-04-30T18:34:42Z</time>
      </trkpt>
      <trkpt lat="43.87819" lon="2.07387">
        <ele>210</ele>
        <time>2017-04-30T18:36:42Z</time>
      </trkpt>
      <trkpt lat="43.87621" lon="2.07751">
        <ele>212</ele>
        <time>2017-04-30T18:38:42Z</time>
      </trkpt>
      <trkpt lat="43.87367" lon="2.07936">
        <ele>223</ele>
        <time>2017-04-30T18:40:42Z</time>
      </trkpt>
      <trkpt lat="43.87247" lon="2.07747">
        <ele>223</ele>
        <time>2017-04-30T18:42:42Z</time>
      </trkpt>
      <trkpt lat="43.87058" lon="2.07584">
        <ele>228</ele>
        <time>2017-04-30T18:44:42Z</time>
      </trkpt>
      <trkpt lat="43.86977" lon="2.07447">
        <ele>225</ele>
        <time>2017-04-30T18:46:42Z</time>
      </trkpt>
      <trkpt lat="43.86866" lon="2.07344">
        <ele>226</ele>
        <time>2017-04-30T18:48:42Z</time>
      </trkpt>
      <trkpt lat="43.86922" lon="2.07232">
        <ele>225</ele>
        <time>2017-04-30T18:50:42Z</time>
      </trkpt>
      <trkpt lat="43.8695" lon="2.0709">
        <ele>222</ele>
        <time>2017-04-30T18:52:42Z</time>
      </trkpt>
      <trkpt lat="43.86999" lon="2.06957">
        <ele>223</ele>
        <time>2017-04-30T18:54:42Z</time>
      </trkpt>
      <trkpt lat="43.87076" lon="2.06833">
        <ele>224</ele>
        <time>2017-04-30T18:56:42Z</time>
      </trkpt>
      <trkpt lat="43.8737" lon="2.06541">
        <ele>224</ele>
        <time>2017-04-30T18:58:42Z</time>
      </trkpt>
      <trkpt lat="43.87265" lon="2.06438">
        <ele>221</ele>
        <time>2017-04-30T19:00:42Z</time>
      </trkpt>
      <trkpt lat="43.87228" lon="2.06245">
        <ele>216</ele>
        <time>2017-04-30T19:02:42Z</time>
      </trkpt>
      <trkpt lat="43.87144" lon="2.05867">
        <ele>207</ele>
        <time>2017-04-30T19:04:42Z</time>
      </trkpt>
      <trkpt lat="43.87166" lon="2.05636">
        <ele>199</ele>
        <time>2017-04-30T19:06:42Z</time>
      </trkpt>
      <trkpt lat="43.87042" lon="2.05473">
        <ele>188</ele>
        <time>2017-04-30T19:08:42Z</time>
      </trkpt>
      <trkpt lat="43.86999" lon="2.05301">
        <ele>183</ele>
        <time>2017-04-30T19:10:42Z</time>
      </trkpt>
      <trkpt lat="43.8699" lon="2.05125">
        <ele>180</ele>
        <time>2017-04-30T19:12:42Z</time>
      </trkpt>
      <trkpt lat="43.87095" lon="2.05099">
        <ele>189</ele>
        <time>2017-04-30T19:14:42Z</time>
      </trkpt>
      <trkpt lat="43.87172" lon="2.05099">
        <ele>191</ele>
        <time>2017-04-30T19:16:42Z</time>
      </trkpt>
      <trkpt lat="43.87194" lon="2.04975">
        <ele>196</ele>
        <time>2017-04-30T19:18:42Z</time>
      </trkpt>
      <trkpt lat="43.87144" lon="2.04919">
        <ele>198</ele>
        <time>2017-04-30T19:20:42Z</time>
      </trkpt>
      <trkpt lat="43.87293" lon="2.04872">
        <ele>196</ele>
        <time>2017-04-30T19:22:42Z</time>
      </trkpt>
      <trkpt lat="43.87423" lon="2.04872">
        <ele>194</ele>
        <time>2017-04-30T19:24:42Z</time>
      </trkpt>
      <trkpt lat="43.87646" lon="2.04516">
        <ele>190</ele>
        <time>2017-04-30T19:26:42Z</time>
      </trkpt>
      <trkpt lat="43.87742" lon="2.0437">
        <ele>184</ele>
        <time>2017-04-30T19:28:42Z</time>
      </trkpt>
      <trkpt lat="43.87924" lon="2.04134">
        <ele>192</ele>
        <time>2017-04-30T19:30:42Z</time>
      </trkpt>
      <trkpt lat="43.88032" lon="2.04146">
        <ele>203</ele>
        <time>2017-04-30T19:32:42Z</time>
      </trkpt>
      <trkpt lat="43.88171" lon="2.04099">
        <ele>210</ele>
        <time>2017-04-30T19:34:42Z</time>
      </trkpt>
      <trkpt lat="43.88122" lon="2.04361">
        <ele>209</ele>
        <time>2017-04-30T19:36:42Z</time>
      </trkpt>
      <trkpt lat="43.88298" lon="2.04271">
        <ele>207</ele>
        <time>2017-04-30T19:38:42Z</time>
      </trkpt>
      <trkpt lat="43.88323" lon="2.04365">
        <ele>206</ele>
        <time>2017-04-30T19:40:42Z</time>
      </trkpt>
      <trkpt lat="43.88394" lon="2.04425">
        <ele>206</ele>
        <time>2017-04-30T19:42:42Z</time>
      </trkpt>
      <trkpt lat="43.88323" lon="2.04528">
        <ele>208</ele>
        <time>2017-04-30T19:44:42Z</time>
      </trkpt>
      <trkpt lat="43.88249" lon="2.04722">
        <ele>216</ele>
        <time>2017-04-30T19:46:42Z</time>
      </trkpt>
      <trkpt lat="43.88202" lon="2.04859">
        <ele>226</ele>
        <time>2017-04-30T19:48:42Z</time>
      </trkpt>
      <trkpt lat="43.88209" lon="2.05005">
        <ele>237</ele>
        <time>2017-04-30T19:50:42Z</time>
      </trkpt>
      <trkpt lat="43.88258" lon="2.05048">
        <ele>239</ele>
        <time>2017-04-30T19:52:42Z</time>
      </trkpt>
      <trkpt lat="43.88289" lon="2.05224">
        <ele>242</ele>
        <time>2017-04-30T19:54:42Z</time>
      </trkpt>
      <trkpt lat="43.88342" lon="2.05322">
        <ele>236</ele>
        <time>2017-04-30T19:56:42Z</time>
      </trkpt>
      <trkpt lat="43.88394" lon="2.05331">
        <ele>230</ele>
        <time>2017-04-30T19:58:42Z</time>
      </trkpt>
      <trkpt lat="43.88462" lon="2.0546">
        <ele>225</ele>
        <time>2017-04-30T20:00:42Z</time>
      </trkpt>
      <trkpt lat="43.88632" lon="2.05485">
        <ele>211</ele>
        <time>2017-04-30T20:02:42Z</time>
      </trkpt>
      <trkpt lat="43.88756" lon="2.05511">
        <ele>207</ele>
        <time>2017-04-30T20:04:42Z</time>
      </trkpt>
      <trkpt lat="43.88762" lon="2.05696">
        <ele>200</ele>
        <time>2017-04-30T20:06:42Z</time>
      </trkpt>
      <trkpt lat="43.88815" lon="2.05859">
        <ele>184</ele>
        <time>2017-04-30T20:08:42Z</time>
      </trkpt>
      <trkpt lat="43.88685" lon="2.06">
        <ele>184</ele>
        <time>2017-04-30T20:10:42Z</time>
      </trkpt>
      <trkpt lat="43.88685" lon="2.06095">
        <ele>184</ele>
        <time>2017-04-30T20:12:42Z</time>
      </trkpt>
      <trkpt lat="43.88506" lon="2.06408">
        <ele>203</ele>
        <time>2017-04-30T20:14:42Z</time>
      </trkpt>
      <trkpt lat="43.88373" lon="2.06614">
        <ele>209</ele>
        <time>2017-04-30T20:16:42Z</time>
      </trkpt>
      <trkpt lat="43.88309" lon="2.06736">
        <ele>213</ele>
        <time>2017-04-30T20:18:42Z</time>
      </trkpt>
      <trkpt lat="43.88246" lon="2.06865">
        <ele>215</ele>
        <time>2017-04-30T20:20:42Z</time>
      </trkpt>
    </trkseg>
  </trk>
</gpx>